createdAt,value
2019-03-05T00:00:42.701Z,8.20
2019-03-05T00:03:33.322Z,8.20
2019-03-05T00:06:23.471Z,8.30
2019-03-05T00:09:21.288Z,8.20
2019-03-05T00:12:10.531Z,8.20
2019-03-05T00:15:47.850Z,8.20
2019-03-05T00:18:37.614Z,8.20
2019-03-05T00:21:27.117Z,8.20
2019-03-05T00:25:00.621Z,8.20
2019-03-05T00:28:03.173Z,8.30
2019-03-05T00:31:02.660Z,8.30
2019-03-05T00:34:21.861Z,8.30
2019-03-05T00:37:29.252Z,8.30
2019-03-05T00:40:48.119Z,8.30
2019-03-05T00:44:06.141Z,8.30
2019-03-05T00:47:14.131Z,8.20
2019-03-05T00:50:54.218Z,8.20
2019-03-05T00:54:15.028Z,8.20
2019-03-05T00:57:45.015Z,8.20
2019-03-05T01:01:09.331Z,8.20
2019-03-05T01:04:27.042Z,8.20
2019-03-05T01:07:17.168Z,8.20
2019-03-05T01:10:07.452Z,8.20
2019-03-05T01:12:57.431Z,8.10
2019-03-05T01:15:47.591Z,8.10
2019-03-05T01:18:37.391Z,8.00
2019-03-05T01:21:27.082Z,8.00
2019-03-05T01:24:17.471Z,8.00
2019-03-05T01:27:07.355Z,8.00
2019-03-05T01:29:57.144Z,7.90
2019-03-05T01:32:51.834Z,8.00
2019-03-05T01:35:54.720Z,8.00
2019-03-05T01:39:09.386Z,8.00
2019-03-05T01:41:59.154Z,8.00
2019-03-05T01:44:48.857Z,8.10
2019-03-05T01:47:38.412Z,8.10
2019-03-05T01:50:28.164Z,8.10
2019-03-05T01:53:18.304Z,8.10
2019-03-05T01:56:07.958Z,8.00
2019-03-05T01:58:57.611Z,8.00
2019-03-05T02:01:47.461Z,8.00
2019-03-05T02:04:37.734Z,8.00
2019-03-05T02:07:27.115Z,8.00
2019-03-05T02:10:20.601Z,8.00
2019-03-05T02:13:10.514Z,8.00
2019-03-05T02:16:00.412Z,8.00
2019-03-05T02:18:50.197Z,8.00
2019-03-05T02:21:40.176Z,7.90
2019-03-05T02:25:05.074Z,8.00
2019-03-05T02:28:39.094Z,7.90
2019-03-05T02:32:12.497Z,8.00
2019-03-05T02:35:26.853Z,8.10
2019-03-05T02:39:18.993Z,8.10
2019-03-05T02:42:39.993Z,8.00
2019-03-05T02:46:10.445Z,8.00
2019-03-05T02:49:16.683Z,8.00
2019-03-05T02:52:45.904Z,8.00
2019-03-05T02:56:03.138Z,7.90
2019-03-05T02:58:50.859Z,7.90
2019-03-05T03:01:59.893Z,7.80
2019-03-05T03:04:51.314Z,7.80
2019-03-05T03:07:41.292Z,7.80
2019-03-05T03:10:31.576Z,7.80
2019-03-05T03:13:21.365Z,7.70
2019-03-05T03:16:11.033Z,7.80
2019-03-05T03:19:00.212Z,7.80
2019-03-05T03:21:50.089Z,7.80
2019-03-05T03:24:39.704Z,7.70
2019-03-05T03:27:29.535Z,7.70
2019-03-05T03:30:27.224Z,7.60
2019-03-05T03:33:17.509Z,7.60
2019-03-05T03:36:07.385Z,7.60
2019-03-05T03:38:57.191Z,7.70
2019-03-05T03:41:47.253Z,7.70
2019-03-05T03:44:37.434Z,7.70
2019-03-05T03:47:27.117Z,7.70
2019-03-05T03:50:16.614Z,7.70
2019-03-05T03:53:06.286Z,7.70
2019-03-05T03:55:56.352Z,7.70
2019-03-05T03:58:46.167Z,7.70
2019-03-05T04:01:35.911Z,7.70
2019-03-05T04:04:25.917Z,7.70
2019-03-05T04:07:15.805Z,7.80
2019-03-05T04:10:05.972Z,7.80
2019-03-05T04:12:55.607Z,7.90
2019-03-05T04:15:45.527Z,7.80
2019-03-05T04:18:35.254Z,7.80
2019-03-05T04:21:24.884Z,7.80
2019-03-05T04:24:15.604Z,7.80
2019-03-05T04:27:05.358Z,7.80
2019-03-05T04:29:55.203Z,7.90
2019-03-05T04:32:44.914Z,7.90
2019-03-05T04:35:34.514Z,7.90
2019-03-05T04:38:24.131Z,7.90
2019-03-05T04:41:13.864Z,7.90
2019-03-05T04:44:04.758Z,7.90
2019-03-05T04:46:55.541Z,7.80
2019-03-05T04:50:03.541Z,7.80
2019-03-05T04:52:53.264Z,7.90
2019-03-05T04:55:42.814Z,7.90
2019-03-05T04:58:32.715Z,7.90
2019-03-05T05:01:22.494Z,7.80
2019-03-05T05:04:12.394Z,7.80
2019-03-05T05:07:02.037Z,7.80
2019-03-05T05:09:51.812Z,7.80
2019-03-05T05:12:41.824Z,7.80
2019-03-05T05:18:51.318Z,7.80
2019-03-05T05:21:40.994Z,7.80
2019-03-05T05:24:30.255Z,7.80
2019-03-05T05:27:20.236Z,7.80
2019-03-05T05:30:30.044Z,7.80
2019-03-05T05:33:21.052Z,7.80
2019-03-05T05:36:10.801Z,7.80
2019-03-05T05:39:00.946Z,7.80
2019-03-05T05:41:52.564Z,7.70
2019-03-05T05:44:42.253Z,7.80
2019-03-05T05:47:32.252Z,7.80
2019-03-05T05:50:21.885Z,7.70
2019-03-05T05:53:11.667Z,7.70
2019-03-05T05:56:01.453Z,7.70
2019-03-05T05:58:51.074Z,7.60
2019-03-05T06:01:41.154Z,7.60
2019-03-05T06:04:31.082Z,7.60
2019-03-05T06:07:21.289Z,7.60
2019-03-05T06:10:11.312Z,7.50
2019-03-05T06:13:01.149Z,7.50
2019-03-05T06:15:50.692Z,7.50
2019-03-05T06:18:40.474Z,7.50
2019-03-05T06:21:30.272Z,7.50
2019-03-05T06:24:20.358Z,7.40
2019-03-05T06:27:10.072Z,7.50
2019-03-05T06:29:59.821Z,7.50
2019-03-05T06:32:49.874Z,7.50
2019-03-05T06:35:39.904Z,7.50
2019-03-05T06:38:30.074Z,7.40
2019-03-05T06:41:20.014Z,7.40
2019-03-05T06:44:09.561Z,7.40
2019-03-05T06:46:59.532Z,7.40
2019-03-05T06:49:49.112Z,7.50
2019-03-05T06:52:39.181Z,7.50
2019-03-05T06:55:28.945Z,7.50
2019-03-05T06:58:18.644Z,7.50
2019-03-05T07:01:08.531Z,7.50
2019-03-05T07:03:59.333Z,7.50
2019-03-05T07:06:56.677Z,7.50
2019-03-05T07:09:58.721Z,7.50
2019-03-05T07:13:14.123Z,7.50
2019-03-05T07:16:14.737Z,7.50
2019-03-05T07:19:27.689Z,7.50
2019-03-05T07:22:55.056Z,7.50
2019-03-05T07:25:44.864Z,7.50
2019-03-05T07:28:34.915Z,7.50
2019-03-05T07:31:24.461Z,7.50
2019-03-05T07:34:21.227Z,7.50
2019-03-05T07:37:12.431Z,7.60
2019-03-05T07:40:02.622Z,7.60
2019-03-05T07:42:52.360Z,7.60
2019-03-05T07:45:42.494Z,7.60
2019-03-05T07:48:32.176Z,7.60
2019-03-05T07:51:22.275Z,7.60
2019-03-05T07:54:12.152Z,7.60
2019-03-05T07:57:01.819Z,7.60
2019-03-05T07:59:51.824Z,7.70
2019-03-05T08:02:41.796Z,7.70
2019-03-05T08:05:31.595Z,7.70
2019-03-05T08:08:57.798Z,7.70
2019-03-05T08:11:47.686Z,7.80
2019-03-05T08:15:02.764Z,7.70
2019-03-05T08:17:52.752Z,7.70
2019-03-05T08:20:42.855Z,7.70
2019-03-05T08:23:32.811Z,7.80
2019-03-05T08:26:22.668Z,7.70
2019-03-05T08:29:12.154Z,7.80
2019-03-05T08:32:02.014Z,7.90
2019-03-05T08:34:52.015Z,7.80
2019-03-05T08:37:42.065Z,7.80
2019-03-05T08:40:31.792Z,7.80
2019-03-05T08:43:21.564Z,7.70
2019-03-05T08:46:11.751Z,7.70
2019-03-05T08:49:01.763Z,7.70
2019-03-05T08:51:51.364Z,7.70
2019-03-05T08:54:41.172Z,7.60
2019-03-05T08:57:30.882Z,7.60
2019-03-05T09:00:20.596Z,7.60
2019-03-05T09:03:10.332Z,7.60
2019-03-05T09:06:00.544Z,7.60
2019-03-05T09:08:51.651Z,7.50
2019-03-05T09:11:41.858Z,7.60
2019-03-05T09:14:34.252Z,7.80
2019-03-05T09:17:23.124Z,7.80
2019-03-05T09:20:14.674Z,8.00
2019-03-05T09:23:04.861Z,8.00
2019-03-05T09:25:54.694Z,8.00
2019-03-05T09:28:44.153Z,8.00
2019-03-05T09:31:33.971Z,8.00
2019-03-05T09:34:24.365Z,8.00
2019-03-05T09:37:14.452Z,7.90
2019-03-05T09:40:04.645Z,7.90
2019-03-05T09:42:54.119Z,7.80
2019-03-05T09:45:44.228Z,7.70
2019-03-05T09:48:33.961Z,7.70
2019-03-05T09:51:23.805Z,7.50
2019-03-05T09:54:13.835Z,7.50
2019-03-05T09:57:03.354Z,7.60
2019-03-05T09:59:53.302Z,7.70
2019-03-05T10:02:43.391Z,7.70
2019-03-05T10:05:33.361Z,7.70
2019-03-05T10:08:31.920Z,7.70
2019-03-05T10:11:15.370Z,7.70
2019-03-05T10:14:05.406Z,8.00
2019-03-05T10:16:55.353Z,8.10
2019-03-05T10:19:44.714Z,8.10
2019-03-05T10:22:34.531Z,8.20
2019-03-05T10:25:25.245Z,8.20
2019-03-05T10:28:14.984Z,8.30
2019-03-05T10:31:04.611Z,8.50
2019-03-05T10:33:54.694Z,8.60
2019-03-05T10:36:44.414Z,8.60
2019-03-05T10:39:34.322Z,8.70
2019-03-05T10:42:24.191Z,8.90
2019-03-05T10:45:16.444Z,8.80
2019-03-05T10:48:06.444Z,8.60
2019-03-05T10:50:56.492Z,8.30
2019-03-05T10:53:46.051Z,8.30
2019-03-05T10:56:35.785Z,8.40
2019-03-05T10:59:25.324Z,8.40
2019-03-05T11:02:15.641Z,8.50
2019-03-05T11:05:05.600Z,8.50
2019-03-05T11:07:55.373Z,8.60
2019-03-05T11:10:45.366Z,8.20
2019-03-05T11:13:35.572Z,7.90
2019-03-05T11:16:30.748Z,7.70
2019-03-05T11:19:17.656Z,7.70
2019-03-05T11:22:07.277Z,7.70
2019-03-05T11:24:57.203Z,7.80
2019-03-05T11:27:47.502Z,7.90
2019-03-05T11:30:38.036Z,7.90
2019-03-05T11:33:28.125Z,7.80
2019-03-05T11:36:18.391Z,7.80
2019-03-05T11:39:08.722Z,7.90
2019-03-05T11:41:59.814Z,8.00
2019-03-05T11:44:59.004Z,8.20
2019-03-05T11:47:41.745Z,8.30
2019-03-05T11:50:31.479Z,8.20
2019-03-05T11:53:21.314Z,8.30
2019-03-05T11:56:11.076Z,8.20
2019-03-05T11:59:00.755Z,8.20
2019-03-05T12:01:51.895Z,8.20
2019-03-05T12:04:41.407Z,8.20
2019-03-05T12:07:31.195Z,8.30
2019-03-05T12:10:21.714Z,8.50
2019-03-05T12:13:11.391Z,8.80
2019-03-05T12:16:04.914Z,8.80
2019-03-05T12:18:55.046Z,8.80
2019-03-05T12:21:44.394Z,9.00
2019-03-05T12:24:34.312Z,9.30
2019-03-05T12:27:24.005Z,9.50
2019-03-05T12:30:17.731Z,9.10
2019-03-05T12:33:07.411Z,9.10
2019-03-05T12:35:57.185Z,9.10
2019-03-05T12:38:47.115Z,9.00
2019-03-05T12:41:37.245Z,9.10
2019-03-05T12:44:27.251Z,9.10
2019-03-05T12:47:17.026Z,9.00
2019-03-05T12:50:08.181Z,8.80
2019-03-05T12:52:58.222Z,8.60
2019-03-05T12:55:47.882Z,8.80
2019-03-05T12:58:37.871Z,9.30
2019-03-05T13:01:27.571Z,9.20
2019-03-05T13:04:17.494Z,9.70
2019-03-05T13:07:07.352Z,9.30
2019-03-05T13:09:58.189Z,9.40
2019-03-05T13:12:47.921Z,9.00
2019-03-05T13:15:38.527Z,8.90
2019-03-05T13:18:30.934Z,9.40
2019-03-05T13:21:19.715Z,9.20
2019-03-05T13:24:10.063Z,9.10
2019-03-05T13:27:01.040Z,9.20
2019-03-05T13:29:51.044Z,9.20
2019-03-05T13:32:40.581Z,9.20
2019-03-05T13:35:32.055Z,8.90
2019-03-05T13:38:22.195Z,8.80
2019-03-05T13:41:12.234Z,8.70
2019-03-05T13:44:03.007Z,8.50
2019-03-05T13:46:52.736Z,8.60
2019-03-05T13:50:32.589Z,8.70
2019-03-05T13:54:00.988Z,9.00
2019-03-05T13:57:27.333Z,9.20
2019-03-05T14:00:18.082Z,9.10
2019-03-05T14:03:15.594Z,8.70
2019-03-05T14:06:47.976Z,8.50
2019-03-05T14:09:35.275Z,8.40
2019-03-05T14:12:24.851Z,8.30
2019-03-05T14:15:14.411Z,8.30
2019-03-05T14:18:04.324Z,8.30
2019-03-05T14:20:54.048Z,8.20
2019-03-05T14:23:44.183Z,8.20
2019-03-05T14:26:34.365Z,8.20
2019-03-05T14:29:24.591Z,8.10
2019-03-05T14:32:14.734Z,8.10
2019-03-05T14:35:10.560Z,8.10
2019-03-05T14:38:00.352Z,8.30
2019-03-05T14:40:50.575Z,8.40
2019-03-05T14:43:40.090Z,8.60
2019-03-05T14:46:29.822Z,8.60
2019-03-05T14:49:19.979Z,8.70
2019-03-05T14:52:09.949Z,8.70
2019-03-05T14:55:00.365Z,8.90
2019-03-05T14:57:50.697Z,9.00
2019-03-05T15:00:41.063Z,8.80
2019-03-05T15:03:30.916Z,8.70
2019-03-05T15:06:20.930Z,8.60
2019-03-05T15:09:10.590Z,8.60
2019-03-05T15:12:00.765Z,8.70
2019-03-05T15:14:51.207Z,8.70
2019-03-05T15:17:41.194Z,8.60
2019-03-05T15:20:30.940Z,8.60
2019-03-05T15:23:20.730Z,8.70
2019-03-05T15:26:10.608Z,8.60
2019-03-05T15:29:00.616Z,8.60
2019-03-05T15:31:50.103Z,8.60
2019-03-05T15:34:39.924Z,8.60
2019-03-05T15:37:29.735Z,8.60
2019-03-05T15:40:19.652Z,8.50
2019-03-05T15:43:09.261Z,8.40
2019-03-05T15:45:58.830Z,8.30
2019-03-05T15:48:49.679Z,8.20
2019-03-05T15:51:41.547Z,8.10
2019-03-05T15:54:31.252Z,8.00
2019-03-05T15:57:26.069Z,8.10
2019-03-05T16:00:25.774Z,8.00
2019-03-05T16:03:15.832Z,8.00
2019-03-05T16:06:05.756Z,7.90
2019-03-05T16:08:57.854Z,7.90
2019-03-05T16:11:46.612Z,7.90
2019-03-05T16:14:36.571Z,7.80
2019-03-05T16:17:27.990Z,7.80
2019-03-05T16:20:18.511Z,7.70
2019-03-05T16:23:08.182Z,7.70
2019-03-05T16:25:58.064Z,7.60
2019-03-05T16:28:48.158Z,7.60
2019-03-05T16:31:56.933Z,7.60
2019-03-05T16:35:18.633Z,7.60
2019-03-05T16:38:40.546Z,7.60
2019-03-05T16:41:57.370Z,7.50
2019-03-05T16:45:04.724Z,7.60
2019-03-05T16:48:12.105Z,7.50
2019-03-05T16:51:06.463Z,7.50
2019-03-05T16:54:14.945Z,7.50
2019-03-05T16:57:26.536Z,7.50
2019-03-05T17:00:27.889Z,7.40
2019-03-05T17:03:32.794Z,7.30
2019-03-05T17:06:34.584Z,7.30
2019-03-05T17:09:58.358Z,7.30
2019-03-05T17:12:48.314Z,7.30
2019-03-05T17:15:38.156Z,7.30
2019-03-05T17:18:28.812Z,7.20
2019-03-05T17:21:27.035Z,7.30
2019-03-05T17:24:10.157Z,7.20
2019-03-05T17:27:00.438Z,7.10
2019-03-05T17:29:50.475Z,7.10
2019-03-05T17:32:40.272Z,7.10
2019-03-05T17:35:29.804Z,7.10
2019-03-05T17:38:19.215Z,7.10
2019-03-05T17:41:09.632Z,7.00
2019-03-05T17:43:59.602Z,7.00
2019-03-05T17:46:49.015Z,7.00
2019-03-05T17:49:39.081Z,7.00
2019-03-05T17:52:29.052Z,7.10
2019-03-05T17:55:24.151Z,7.10
2019-03-05T17:58:12.203Z,7.10
2019-03-05T18:01:01.574Z,7.10
2019-03-05T18:03:52.917Z,7.00
2019-03-05T18:06:42.952Z,7.00
2019-03-05T18:09:32.958Z,7.10
2019-03-05T18:12:23.091Z,7.00
2019-03-05T18:15:13.055Z,6.90
2019-03-05T18:18:02.816Z,6.90
2019-03-05T18:20:53.323Z,6.80
2019-03-05T18:23:42.974Z,6.70
2019-03-05T18:26:32.781Z,6.70
2019-03-05T18:29:23.211Z,6.70
2019-03-05T18:32:13.551Z,6.60
2019-03-05T18:35:03.322Z,6.60
2019-03-05T18:37:55.048Z,6.60
2019-03-05T18:40:44.624Z,6.50
2019-03-05T18:43:34.435Z,6.40
2019-03-05T18:46:24.273Z,6.40
2019-03-05T18:49:14.104Z,6.40
2019-03-05T18:52:03.855Z,6.40
2019-03-05T18:54:53.351Z,6.40
2019-03-05T18:57:43.295Z,6.30
2019-03-05T19:00:33.319Z,6.30
2019-03-05T19:03:23.051Z,6.30
2019-03-05T19:06:12.871Z,6.20
2019-03-05T19:09:02.893Z,6.20
2019-03-05T19:11:54.574Z,6.20
2019-03-05T19:14:44.043Z,6.20
2019-03-05T19:17:33.822Z,6.30
2019-03-05T19:20:24.224Z,6.30
2019-03-05T19:23:13.915Z,6.20
2019-03-05T19:26:03.854Z,6.20
2019-03-05T19:28:53.831Z,6.30
2019-03-05T19:31:44.031Z,6.20
2019-03-05T19:34:33.925Z,6.20
2019-03-05T19:37:23.631Z,6.20
2019-03-05T19:40:16.405Z,6.20
2019-03-05T19:43:06.831Z,6.20
2019-03-05T19:45:56.754Z,6.10
2019-03-05T19:48:46.699Z,6.00
2019-03-05T19:51:36.801Z,6.10
2019-03-05T19:54:26.861Z,6.10
2019-03-05T19:57:16.884Z,6.10
2019-03-05T20:00:10.041Z,6.10
2019-03-05T20:03:00.477Z,6.10
2019-03-05T20:05:49.974Z,6.00
2019-03-05T20:08:40.527Z,6.10
2019-03-05T20:11:30.376Z,6.20
2019-03-05T20:14:20.175Z,6.30
2019-03-05T20:17:10.124Z,6.20
2019-03-05T20:19:59.941Z,6.20
2019-03-05T20:22:50.081Z,6.20
2019-03-05T20:25:39.990Z,6.20
2019-03-05T20:28:31.164Z,6.30
2019-03-05T20:31:20.761Z,6.30
2019-03-05T20:34:10.477Z,6.30
2019-03-05T20:37:00.033Z,6.20
2019-03-05T20:39:50.309Z,6.10
2019-03-05T20:42:43.271Z,6.00
2019-03-05T20:45:33.441Z,6.00
2019-03-05T20:48:23.174Z,5.90
2019-03-05T20:51:12.500Z,5.90
2019-03-05T20:54:02.305Z,6.00
2019-03-05T20:56:51.867Z,5.90
2019-03-05T20:59:41.877Z,6.00
2019-03-05T21:02:31.834Z,5.90
2019-03-05T21:05:21.714Z,5.90
2019-03-05T21:08:11.902Z,5.80
2019-03-05T21:11:01.778Z,5.80
2019-03-05T21:13:51.362Z,5.90
2019-03-05T21:16:40.746Z,6.00
2019-03-05T21:19:30.493Z,6.00
2019-03-05T21:22:20.376Z,6.00
2019-03-05T21:25:11.235Z,6.00
2019-03-05T21:28:00.815Z,5.90
2019-03-05T21:30:50.874Z,5.90
2019-03-05T21:33:40.984Z,5.90
2019-03-05T21:36:31.534Z,5.90
2019-03-05T21:39:22.035Z,6.00
2019-03-05T21:42:11.922Z,5.90
2019-03-05T21:45:04.030Z,6.00
2019-03-05T21:47:54.965Z,5.90
2019-03-05T21:50:44.961Z,5.90
2019-03-05T21:53:34.924Z,5.90
2019-03-05T21:56:24.524Z,5.90
2019-03-05T21:59:14.481Z,5.90
2019-03-05T22:02:04.274Z,5.90
2019-03-05T22:04:54.062Z,5.90
2019-03-05T22:07:43.919Z,5.80
2019-03-05T22:10:33.456Z,5.70
2019-03-05T22:13:23.294Z,5.60
2019-03-05T22:16:13.412Z,5.50
2019-03-05T22:19:03.352Z,5.40
2019-03-05T22:21:52.976Z,5.40
2019-03-05T22:24:42.804Z,5.40
2019-03-05T22:27:32.890Z,5.40
2019-03-05T22:30:24.412Z,5.40
2019-03-05T22:33:14.441Z,5.40
2019-03-05T22:36:03.972Z,5.20
2019-03-05T22:38:53.864Z,5.10
2019-03-05T22:41:43.752Z,5.00
2019-03-05T22:44:33.315Z,5.10
2019-03-05T22:47:22.885Z,5.10
2019-03-05T22:50:12.961Z,5.10
2019-03-05T22:53:02.762Z,5.20
2019-03-05T22:55:52.811Z,5.40
2019-03-05T22:58:42.325Z,5.60
2019-03-05T23:01:38.949Z,5.60
2019-03-05T23:04:35.366Z,5.70
2019-03-05T23:07:24.883Z,5.60
2019-03-05T23:10:15.283Z,5.60
2019-03-05T23:13:05.794Z,5.60
2019-03-05T23:15:55.551Z,5.40
2019-03-05T23:18:45.707Z,5.30
2019-03-05T23:21:35.721Z,5.20
2019-03-05T23:24:26.522Z,5.10
2019-03-05T23:27:15.795Z,5.00
2019-03-05T23:30:09.692Z,4.80
2019-03-05T23:33:01.204Z,4.70
2019-03-05T23:35:51.193Z,4.70
2019-03-05T23:38:41.052Z,4.70
2019-03-05T23:41:30.607Z,4.70
2019-03-05T23:44:20.723Z,4.80
2019-03-05T23:47:10.994Z,4.90
2019-03-05T23:50:00.885Z,5.00
2019-03-05T23:52:50.851Z,4.80
2019-03-05T23:55:40.874Z,4.90
2019-03-05T23:58:30.646Z,4.70
